Time,TemperatureF,DewpointF,PressureIn,WindDirection,WindDirectionDegrees,WindSpeedMPH,WindSpeedGustMPH,Humidity,HourlyPrecipIn,Conditions,Clouds,dailyrainin,SoftwareType,DateUTC
2013-08-06 00:05:00,65.9,64.4,29.91,SE,146,0.0,0.0,95,0.00,,,0.00,Wunderground v.1.15,2013-08-06 05:05:00,
2013-08-06 00:10:00,66.0,64.5,29.91,SE,146,0.0,0.0,95,0.00,,,0.00,Wunderground v.1.15,2013-08-06 05:10:00,
2013-08-06 00:15:00,66.1,64.6,29.91,SE,146,0.0,0.0,95,0.00,,,0.00,Wunderground v.1.15,2013-08-06 05:15:00,
2013-08-06 00:25:00,66.3,64.8,29.91,SE,146,0.0,0.0,95,0.00,,,0.00,Wunderground v.1.15,2013-08-06 05:25:00,
2013-08-06 00:30:00,66.4,64.9,29.91,SE,146,0.0,0.0,95,0.00,,,0.00,Wunderground v.1.15,2013-08-06 05:30:00,
2013-08-06 00:35:00,66.5,65.0,29.91,SE,146,0.0,0.0,95,0.00,,,0.00,Wunderground v.1.15,2013-08-06 05:35:00,
2013-08-06 00:40:00,66.5,65.0,29.91,SE,146,0.0,0.0,95,0.00,,,0.00,Wunderground v.1.15,2013-08-06 05:40:00,
2013-08-06 00:45:00,66.6,65.1,29.91,SE,146,0.0,0.0,95,0.00,,,0.00,Wunderground v.1.15,2013-08-06 05:45:00,
2013-08-06 00:50:00,66.7,65.2,29.91,SE,146,0.0,0.0,95,0.00,,,0.00,Wunderground v.1.15,2013-08-06 05:50:00,
2013-08-06 01:00:00,66.8,65.3,29.92,SE,146,0.0,0.0,95,0.00,,,0.00,Wunderground v.1.15,2013-08-06 06:00:00,
2013-08-06 01:05:00,66.8,65.3,29.92,SE,146,0.0,0.0,95,0.00,,,0.00,Wunderground v.1.15,2013-08-06 06:05:00,
2013-08-06 01:15:00,66.7,64.9,29.92,SE,146,0.0,0.0,94,0.00,,,0.00,Wunderground v.1.15,2013-08-06 06:15:00,
2013-08-06 01:25:00,66.7,64.9,29.92,SE,146,0.0,0.0,94,0.00,,,0.00,Wunderground v.1.15,2013-08-06 06:25:00,
2013-08-06 01:30:00,66.7,64.9,29.92,SE,146,0.0,0.0,94,0.00,,,0.00,Wunderground v.1.15,2013-08-06 06:30:00,
2013-08-06 01:35:00,66.7,64.9,29.92,SE,132,0.0,0.0,94,0.00,,,0.00,Wunderground v.1.15,2013-08-06 06:35:00,
2013-08-06 01:40:00,66.8,65.3,29.92,SE,132,0.0,0.0,95,0.00,,,0.00,Wunderground v.1.15,2013-08-06 06:40:00,
2013-08-06 01:45:00,67.0,65.5,29.92,SE,133,0.0,0.0,95,0.00,,,0.00,Wunderground v.1.15,2013-08-06 06:45:00,
2013-08-06 01:50:00,67.0,65.5,29.92,SE,133,0.0,0.0,95,0.00,,,0.00,Wunderground v.1.15,2013-08-06 06:50:00,
2013-08-06 01:55:00,67.1,65.6,29.92,SE,129,0.0,0.0,95,0.00,,,0.00,Wunderground v.1.15,2013-08-06 06:55:00,
2013-08-06 02:00:00,67.2,65.7,29.92,SSE,149,0.0,0.0,95,0.00,,,0.00,Wunderground v.1.15,2013-08-06 07:00:00,
2013-08-06 02:05:00,67.1,65.6,29.91,SSE,149,0.0,0.0,95,0.00,,,0.00,Wunderground v.1.15,2013-08-06 07:05:00,
2013-08-06 02:15:00,67.0,65.5,29.91,SSE,149,0.0,0.0,95,0.00,,,0.00,Wunderground v.1.15,2013-08-06 07:15:00,
2013-08-06 02:20:00,67.1,65.6,29.90,SSE,147,0.0,0.0,95,0.00,,,0.00,Wunderground v.1.15,2013-08-06 07:20:00,
2013-08-06 02:30:00,67.1,65.6,29.90,SSE,147,0.0,0.0,95,0.00,,,0.00,Wunderground v.1.15,2013-08-06 07:30:00,
2013-08-06 02:35:00,67.0,65.5,29.91,SE,146,0.0,0.0,95,0.00,,,0.00,Wunderground v.1.15,2013-08-06 07:35:00,
2013-08-06 02:40:00,67.0,65.5,29.91,SE,146,0.0,0.0,95,0.00,,,0.00,Wunderground v.1.15,2013-08-06 07:40:00,
2013-08-06 02:45:00,67.0,65.5,29.90,SSE,147,0.0,0.0,95,0.00,,,0.00,Wunderground v.1.15,2013-08-06 07:45:00,
2013-08-06 02:50:00,66.9,65.4,29.91,SE,142,0.0,0.0,95,0.00,,,0.00,Wunderground v.1.15,2013-08-06 07:50:00,
2013-08-06 02:55:00,66.8,65.3,29.91,SE,142,0.0,0.0,95,0.00,,,0.00,Wunderground v.1.15,2013-08-06 07:55:00,
2013-08-06 03:05:00,66.7,65.2,29.90,SE,142,0.0,0.0,95,0.00,,,0.00,Wunderground v.1.15,2013-08-06 08:05:00,
2013-08-06 03:15:00,66.6,65.1,29.89,SE,141,0.0,0.0,95,0.00,,,0.00,Wunderground v.1.15,2013-08-06 08:15:00,
2013-08-06 03:25:00,66.3,64.8,29.89,SE,142,0.0,0.0,95,0.00,,,0.00,Wunderground v.1.15,2013-08-06 08:25:00,
2013-08-06 03:30:00,66.3,64.8,29.89,SE,142,0.0,0.0,95,0.00,,,0.00,Wunderground v.1.15,2013-08-06 08:30:00,
2013-08-06 03:40:00,66.5,65.0,29.88,SE,142,0.0,0.0,95,0.00,,,0.00,Wunderground v.1.15,2013-08-06 08:40:00,
2013-08-06 03:45:00,66.6,65.1,29.88,SE,142,0.0,0.0,95,0.00,,,0.00,Wunderground v.1.15,2013-08-06 08:45:00,
2013-08-06 03:50:00,66.7,65.2,29.88,SE,142,0.0,0.0,95,0.00,,,0.00,Wunderground v.1.15,2013-08-06 08:50:00,
2013-08-06 03:55:00,66.8,65.3,29.88,SE,142,0.0,0.0,95,0.00,,,0.00,Wunderground v.1.15,2013-08-06 08:55:00,
2013-08-06 04:00:00,66.9,65.4,29.89,SE,142,0.0,0.0,95,0.00,,,0.00,Wunderground v.1.15,2013-08-06 09:00:00,
2013-08-06 04:05:00,67.0,65.8,29.88,SE,142,0.0,0.0,96,0.00,,,0.00,Wunderground v.1.15,2013-08-06 09:05:00,
2013-08-06 04:15:00,67.2,66.0,29.88,SE,142,0.0,0.0,96,0.00,,,0.00,Wunderground v.1.15,2013-08-06 09:15:00,
2013-08-06 04:20:00,67.4,65.9,29.88,SE,142,0.0,0.0,95,0.00,,,0.00,Wunderground v.1.15,2013-08-06 09:20:00,
2013-08-06 04:25:00,67.5,66.0,29.87,SE,142,0.0,0.0,95,0.00,,,0.00,Wunderground v.1.15,2013-08-06 09:25:00,
2013-08-06 04:30:00,67.5,66.0,29.87,SE,142,0.0,0.0,95,0.00,,,0.00,Wunderground v.1.15,2013-08-06 09:30:00,
2013-08-06 04:40:00,67.6,66.4,29.88,SE,142,0.0,0.0,96,0.00,,,0.00,Wunderground v.1.15,2013-08-06 09:40:00,
2013-08-06 04:45:00,67.7,66.5,29.88,SE,142,0.0,0.0,96,0.00,,,0.00,Wunderground v.1.15,2013-08-06 09:45:00,
2013-08-06 04:50:00,67.8,66.6,29.88,SE,142,0.0,0.0,96,0.00,,,0.00,Wunderground v.1.15,2013-08-06 09:50:00,
2013-08-06 05:00:00,67.9,66.7,29.88,SE,142,0.0,0.0,96,0.00,,,0.00,Wunderground v.1.15,2013-08-06 10:00:00,
2013-08-06 05:05:00,68.0,66.8,29.88,SE,142,0.0,0.0,96,0.00,,,0.00,Wunderground v.1.15,2013-08-06 10:05:00,
2013-08-06 05:15:00,68.1,66.9,29.89,SE,142,0.0,0.0,96,0.00,,,0.00,Wunderground v.1.15,2013-08-06 10:15:00,
2013-08-06 05:20:00,68.1,66.9,29.89,SE,142,0.0,0.0,96,0.00,,,0.00,Wunderground v.1.15,2013-08-06 10:20:00,
2013-08-06 05:25:00,68.1,66.9,29.89,SE,142,0.0,0.0,96,0.00,,,0.00,Wunderground v.1.15,2013-08-06 10:25:00,
2013-08-06 05:30:00,68.1,66.9,29.89,SE,142,0.0,0.0,96,0.00,,,0.00,Wunderground v.1.15,2013-08-06 10:30:00,
2013-08-06 05:35:00,68.2,67.0,29.90,SE,142,0.0,0.0,96,0.00,,,0.00,Wunderground v.1.15,2013-08-06 10:35:00,
2013-08-06 05:40:00,68.2,67.0,29.90,SE,142,0.0,0.0,96,0.00,,,0.00,Wunderground v.1.15,2013-08-06 10:40:00,
2013-08-06 05:45:00,68.2,67.0,29.90,SE,142,0.0,0.0,96,0.00,,,0.00,Wunderground v.1.15,2013-08-06 10:45:00,
2013-08-06 05:50:00,68.2,67.0,29.91,SE,142,0.0,0.0,96,0.00,,,0.00,Wunderground v.1.15,2013-08-06 10:50:00,
2013-08-06 05:55:00,68.2,67.0,29.91,SE,142,0.0,0.0,96,0.00,,,0.00,Wunderground v.1.15,2013-08-06 10:55:00,
2013-08-06 06:05:00,68.3,67.1,29.91,SE,142,0.0,0.0,96,0.00,,,0.00,Wunderground v.1.15,2013-08-06 11:05:00,
2013-08-06 06:15:00,68.3,67.1,29.91,SE,142,0.0,0.0,96,0.00,,,0.01,Wunderground v.1.15,2013-08-06 11:15:00,
2013-08-06 06:25:00,68.3,67.1,29.91,SE,142,0.0,0.0,96,0.00,,,0.01,Wunderground v.1.15,2013-08-06 11:25:00,
2013-08-06 06:30:00,68.3,67.1,29.91,SE,142,0.0,0.0,96,0.00,,,0.01,Wunderground v.1.15,2013-08-06 11:30:00,
2013-08-06 06:35:00,68.4,67.2,29.91,SE,142,0.0,0.0,96,0.00,,,0.01,Wunderground v.1.15,2013-08-06 11:35:00,
2013-08-06 06:40:00,68.3,67.1,29.91,SE,142,0.0,0.0,96,0.00,,,0.01,Wunderground v.1.15,2013-08-06 11:40:00,
2013-08-06 06:45:00,68.3,67.1,29.91,SE,142,0.0,0.0,96,0.00,,,0.01,Wunderground v.1.15,2013-08-06 11:45:00,
2013-08-06 06:50:00,68.2,67.0,29.91,SE,142,0.0,0.0,96,0.00,,,0.01,Wunderground v.1.15,2013-08-06 11:50:00,
2013-08-06 06:55:00,68.1,66.9,29.91,SE,142,0.0,0.0,96,0.00,,,0.01,Wunderground v.1.15,2013-08-06 11:55:00,
2013-08-06 07:00:00,68.1,66.9,29.91,SE,142,0.0,0.0,96,0.00,,,0.01,Wunderground v.1.15,2013-08-06 12:00:00,
2013-08-06 07:05:00,68.1,66.9,29.90,SE,142,0.0,0.0,96,0.00,,,0.01,Wunderground v.1.15,2013-08-06 12:05:00,
2013-08-06 07:15:00,68.1,66.9,29.91,SE,142,0.0,0.0,96,0.00,,,0.01,Wunderground v.1.15,2013-08-06 12:15:00,
2013-08-06 07:20:00,68.2,67.0,29.91,SE,142,0.0,0.0,96,0.00,,,0.01,Wunderground v.1.15,2013-08-06 12:20:00,
2013-08-06 07:30:00,68.3,67.1,29.92,SE,142,0.0,0.0,96,0.00,,,0.01,Wunderground v.1.15,2013-08-06 12:30:00,
2013-08-06 07:35:00,68.4,67.2,29.92,SE,142,0.0,0.0,96,0.00,,,0.01,Wunderground v.1.15,2013-08-06 12:35:00,
2013-08-06 07:40:00,68.4,67.2,29.93,SE,142,0.0,0.0,96,0.00,,,0.01,Wunderground v.1.15,2013-08-06 12:40:00,
2013-08-06 07:45:00,68.4,67.2,29.93,SE,142,0.0,0.0,96,0.00,,,0.01,Wunderground v.1.15,2013-08-06 12:45:00,
2013-08-06 07:55:00,68.3,67.1,29.93,SE,142,0.0,0.0,96,0.00,,,0.01,Wunderground v.1.15,2013-08-06 12:55:00,
2013-08-06 08:00:00,68.2,67.0,29.93,SE,134,0.0,0.0,96,0.00,,,0.01,Wunderground v.1.15,2013-08-06 13:00:00,
2013-08-06 08:05:00,68.2,67.0,29.92,SE,134,0.0,0.0,96,0.00,,,0.01,Wunderground v.1.15,2013-08-06 13:05:00,
2013-08-06 08:15:00,68.3,67.1,29.92,SE,138,0.0,0.0,96,0.00,,,0.01,Wunderground v.1.15,2013-08-06 13:15:00,
2013-08-06 08:25:00,68.6,67.4,29.93,SE,138,0.0,0.0,96,0.00,,,0.01,Wunderground v.1.15,2013-08-06 13:25:00,
2013-08-06 08:30:00,68.8,67.6,29.93,SE,139,0.0,0.0,96,0.00,,,0.01,Wunderground v.1.15,2013-08-06 13:30:00,
2013-08-06 08:35:00,68.8,67.6,29.94,SE,136,0.0,0.0,96,0.00,,,0.01,Wunderground v.1.15,2013-08-06 13:35:00,
2013-08-06 08:40:00,68.4,67.2,29.93,SE,136,0.0,0.0,96,0.00,,,0.01,Wunderground v.1.15,2013-08-06 13:40:00,
2013-08-06 08:45:00,68.2,67.0,29.93,SE,136,0.0,0.0,96,0.00,,,0.01,Wunderground v.1.15,2013-08-06 13:45:00,
2013-08-06 08:55:00,68.3,67.1,29.94,SE,136,0.0,0.0,96,0.00,,,0.01,Wunderground v.1.15,2013-08-06 13:55:00,
2013-08-06 09:00:00,68.3,67.1,29.94,SE,136,0.0,0.0,96,0.00,,,0.01,Wunderground v.1.15,2013-08-06 14:00:00,
2013-08-06 09:05:00,68.4,67.2,29.94,SE,136,0.0,0.0,96,0.00,,,0.01,Wunderground v.1.15,2013-08-06 14:05:00,
2013-08-06 09:15:00,68.3,67.1,29.95,SE,136,0.0,0.0,96,0.00,,,0.01,Wunderground v.1.15,2013-08-06 14:15:00,
2013-08-06 09:25:00,68.4,67.2,29.95,SE,136,0.0,0.0,96,0.00,,,0.01,Wunderground v.1.15,2013-08-06 14:25:00,
2013-08-06 09:30:00,68.3,67.1,29.95,SE,136,0.0,0.0,96,0.00,,,0.01,Wunderground v.1.15,2013-08-06 14:30:00,
2013-08-06 09:35:00,68.4,67.2,29.95,SE,136,0.0,0.0,96,0.00,,,0.01,Wunderground v.1.15,2013-08-06 14:35:00,
2013-08-06 09:40:00,68.4,67.2,29.95,SE,136,0.0,0.0,96,0.00,,,0.01,Wunderground v.1.15,2013-08-06 14:40:00,
2013-08-06 09:45:00,68.5,67.3,29.95,SE,136,0.0,0.0,96,0.00,,,0.01,Wunderground v.1.15,2013-08-06 14:45:00,
2013-08-06 09:50:00,68.6,67.4,29.95,SE,136,0.0,0.0,96,0.00,,,0.01,Wunderground v.1.15,2013-08-06 14:50:00,
2013-08-06 09:55:00,68.6,67.4,29.95,SE,136,0.0,0.0,96,0.00,,,0.01,Wunderground v.1.15,2013-08-06 14:55:00,
2013-08-06 10:05:00,68.9,67.7,29.94,SE,136,0.0,0.0,96,0.00,,,0.01,Wunderground v.1.15,2013-08-06 15:05:00,
2013-08-06 10:15:00,68.8,67.6,29.94,SE,136,0.0,0.0,96,0.00,,,0.01,Wunderground v.1.15,2013-08-06 15:15:00,
2013-08-06 10:20:00,69.0,67.8,29.94,SE,136,0.0,0.0,96,0.00,,,0.01,Wunderground v.1.15,2013-08-06 15:20:00,
2013-08-06 10:25:00,69.2,68.0,29.94,SE,136,0.0,0.0,96,0.00,,,0.01,Wunderground v.1.15,2013-08-06 15:25:00,
2013-08-06 10:30:00,69.1,67.9,29.94,SE,136,0.0,0.0,96,0.00,,,0.01,Wunderground v.1.15,2013-08-06 15:30:00,
2013-08-06 10:40:00,69.2,68.0,29.93,SE,136,0.0,0.0,96,0.00,,,0.01,Wunderground v.1.15,2013-08-06 15:40:00,
2013-08-06 10:45:00,69.2,68.0,29.93,SE,136,0.0,0.0,96,0.00,,,0.01,Wunderground v.1.15,2013-08-06 15:45:00,
2013-08-06 10:50:00,69.4,68.2,29.93,SE,135,0.0,2.0,96,0.00,,,0.01,Wunderground v.1.15,2013-08-06 15:50:00,
2013-08-06 10:55:00,69.3,68.1,29.93,SE,136,0.0,2.0,96,0.00,,,0.01,Wunderground v.1.15,2013-08-06 15:55:00,
2013-08-06 11:00:00,69.5,68.3,29.93,SE,136,0.0,0.0,96,0.00,,,0.01,Wunderground v.1.15,2013-08-06 16:00:00,
2013-08-06 11:05:00,69.8,68.6,29.94,WNW,294,0.0,0.0,96,0.00,,,0.01,Wunderground v.1.15,2013-08-06 16:05:00,
2013-08-06 11:15:00,69.9,68.7,29.94,WNW,297,0.0,0.0,96,0.00,,,0.01,Wunderground v.1.15,2013-08-06 16:15:00,
2013-08-06 11:20:00,70.0,68.8,29.94,WNW,296,0.0,0.0,96,0.00,,,0.01,Wunderground v.1.15,2013-08-06 16:20:00,
2013-08-06 11:30:00,70.0,68.8,29.94,WNW,298,0.0,0.0,96,0.00,,,0.01,Wunderground v.1.15,2013-08-06 16:30:00,
2013-08-06 11:40:00,70.0,68.8,29.94,WNW,295,0.0,0.0,96,0.00,,,0.01,Wunderground v.1.15,2013-08-06 16:40:00,
2013-08-06 11:45:00,70.2,69.0,29.94,WNW,295,0.0,1.0,96,0.00,,,0.01,Wunderground v.1.15,2013-08-06 16:45:00,
2013-08-06 11:50:00,70.3,69.1,29.94,WNW,295,0.0,0.0,96,0.00,,,0.01,Wunderground v.1.15,2013-08-06 16:50:00,
2013-08-06 11:55:00,70.4,69.2,29.94,WNW,296,0.0,0.0,96,0.00,,,0.01,Wunderground v.1.15,2013-08-06 16:55:00,
2013-08-06 12:00:00,70.6,69.4,29.94,WNW,295,0.0,0.0,96,0.00,,,0.01,Wunderground v.1.15,2013-08-06 17:00:00,
2013-08-06 12:05:00,70.7,69.5,29.93,WNW,295,0.0,0.0,96,0.00,,,0.01,Wunderground v.1.15,2013-08-06 17:05:00,
2013-08-06 12:15:00,71.1,69.9,29.93,WSW,254,0.0,0.0,96,0.00,,,0.01,Wunderground v.1.15,2013-08-06 17:15:00,
2013-08-06 12:20:00,71.2,70.0,29.93,West,281,0.0,0.0,96,0.00,,,0.01,Wunderground v.1.15,2013-08-06 17:20:00,
2013-08-06 12:25:00,71.3,70.1,29.93,West,279,0.0,0.0,96,0.00,,,0.01,Wunderground v.1.15,2013-08-06 17:25:00,
2013-08-06 12:35:00,71.4,69.9,29.92,ESE,103,0.0,0.0,95,0.00,,,0.01,Wunderground v.1.15,2013-08-06 17:35:00,
2013-08-06 12:40:00,71.8,70.6,29.92,ESE,103,0.0,0.0,96,0.00,,,0.01,Wunderground v.1.15,2013-08-06 17:40:00,
2013-08-06 12:45:00,72.3,71.1,29.92,WNW,303,1.0,1.0,96,0.00,,,0.01,Wunderground v.1.15,2013-08-06 17:45:00,
2013-08-06 12:50:00,73.0,71.5,29.92,WNW,299,0.0,2.0,95,0.00,,,0.01,Wunderground v.1.15,2013-08-06 17:50:00,
2013-08-06 12:55:00,73.4,71.9,29.92,WNW,299,0.0,2.0,95,0.00,,,0.01,Wunderground v.1.15,2013-08-06 17:55:00,
2013-08-06 13:05:00,74.0,71.8,29.92,NNW,342,0.0,0.0,93,0.00,,,0.01,Wunderground v.1.15,2013-08-06 18:05:00,
2013-08-06 13:15:00,74.2,71.7,29.91,ESE,110,0.0,0.0,92,0.00,,,0.01,Wunderground v.1.15,2013-08-06 18:15:00,
2013-08-06 13:25:00,74.2,71.4,29.90,ESE,111,0.0,0.0,91,0.00,,,0.01,Wunderground v.1.15,2013-08-06 18:25:00,
2013-08-06 13:30:00,74.5,71.4,29.90,ESE,114,0.0,0.0,90,0.00,,,0.01,Wunderground v.1.15,2013-08-06 18:30:00,
2013-08-06 13:35:00,75.1,72.0,29.90,NNE,13,0.0,0.0,90,0.00,,,0.01,Wunderground v.1.15,2013-08-06 18:35:00,
2013-08-06 13:40:00,75.2,71.7,29.90,NNE,13,0.0,1.0,89,0.00,,,0.01,Wunderground v.1.15,2013-08-06 18:40:00,
2013-08-06 22:30:00,69.8,68.0,29.88,SE,136,0.0,0.0,94,0.00,,,0.01,Wunderground v.1.15,2013-08-07 03:30:00,
2013-08-06 22:35:00,69.8,68.0,29.88,SE,136,0.0,0.0,94,0.00,,,0.01,Wunderground v.1.15,2013-08-07 03:35:00,
2013-08-06 22:40:00,69.7,67.9,29.88,SE,136,0.0,0.0,94,0.00,,,0.01,Wunderground v.1.15,2013-08-07 03:40:00,
2013-08-06 22:45:00,69.8,68.0,29.88,SE,136,0.0,0.0,94,0.00,,,0.01,Wunderground v.1.15,2013-08-07 03:45:00,
2013-08-06 22:50:00,69.7,67.9,29.87,SE,136,0.0,0.0,94,0.00,,,0.01,Wunderground v.1.15,2013-08-07 03:50:00,
2013-08-06 23:00:00,69.5,67.7,29.87,SE,136,0.0,0.0,94,0.00,,,0.01,Wunderground v.1.15,2013-08-07 04:00:00,
2013-08-06 23:05:00,69.4,67.6,29.87,SE,136,0.0,0.0,94,0.00,,,0.01,Wunderground v.1.15,2013-08-07 04:05:00,
2013-08-06 23:10:00,69.3,67.5,29.87,SE,136,0.0,0.0,94,0.00,,,0.01,Wunderground v.1.15,2013-08-07 04:10:00,
2013-08-06 23:15:00,69.2,67.4,29.86,SE,136,0.0,0.0,94,0.00,,,0.01,Wunderground v.1.15,2013-08-07 04:15:00,
2013-08-06 23:20:00,69.2,67.4,29.86,SE,136,0.0,0.0,94,0.00,,,0.01,Wunderground v.1.15,2013-08-07 04:20:00,
2013-08-06 23:25:00,69.2,67.7,29.86,SE,136,0.0,0.0,95,0.00,,,0.01,Wunderground v.1.15,2013-08-07 04:25:00,
2013-08-06 23:30:00,69.4,67.9,29.87,SE,136,0.0,0.0,95,0.00,,,0.01,Wunderground v.1.15,2013-08-07 04:30:00,
2013-08-06 23:35:00,70.6,69.1,29.87,SE,136,0.0,0.0,95,0.00,,,0.01,Wunderground v.1.15,2013-08-07 04:35:00,
2013-08-06 23:40:00,71.8,70.3,29.87,SE,136,0.0,0.0,95,0.00,,,0.01,Wunderground v.1.15,2013-08-07 04:40:00,
2013-08-06 23:45:00,72.1,70.6,29.87,SE,136,0.0,0.0,95,0.00,,,0.01,Wunderground v.1.15,2013-08-07 04:45:00,
2013-08-06 23:55:00,72.4,70.9,29.86,SE,136,0.0,0.0,95,0.00,,,0.01,Wunderground v.1.15,2013-08-07 04:55:00,